createdAt,value
2023-05-15T00:00:32.234Z,15.92
2023-05-15T00:01:36.468Z,15.98
2023-05-15T00:02:40.916Z,16.03
2023-05-15T00:03:44.619Z,16.04
2023-05-15T00:04:47.447Z,16.00
2023-05-15T00:05:50.488Z,15.99
2023-05-15T00:06:53.859Z,16.00
2023-05-15T00:07:57.916Z,16.06
2023-05-15T00:09:01.423Z,16.07
2023-05-15T00:10:08.365Z,16.10
2023-05-15T00:11:12.300Z,16.13
2023-05-15T00:12:15.947Z,16.18
2023-05-15T00:13:21.178Z,16.20
2023-05-15T00:14:27.616Z,16.24
2023-05-15T00:15:33.312Z,16.27
2023-05-15T00:16:36.667Z,16.25
2023-05-15T00:17:40.340Z,16.26
2023-05-15T00:18:43.967Z,16.25
2023-05-15T00:19:47.645Z,16.22
2023-05-15T00:20:50.427Z,16.26
2023-05-15T00:21:54.341Z,16.26
2023-05-15T00:22:58.463Z,16.21
2023-05-15T00:24:01.864Z,16.16
2023-05-15T00:25:05.195Z,16.10
2023-05-15T00:26:08.790Z,16.05
2023-05-15T00:27:12.494Z,16.06
2023-05-15T00:28:15.982Z,15.97
2023-05-15T00:29:22.233Z,15.91
2023-05-15T00:30:27.500Z,15.85
2023-05-15T00:31:30.940Z,15.86
2023-05-15T00:32:38.332Z,15.84
2023-05-15T00:33:42.393Z,15.94
2023-05-15T00:34:47.268Z,15.92
2023-05-15T00:35:50.774Z,15.91
2023-05-15T00:36:54.374Z,15.90
2023-05-15T00:37:57.060Z,15.89
2023-05-15T00:39:00.218Z,15.84
2023-05-15T00:40:03.702Z,15.82
2023-05-15T00:41:08.398Z,15.78
2023-05-15T00:42:13.475Z,15.76
2023-05-15T00:43:16.660Z,15.75
2023-05-15T00:44:20.648Z,15.75
2023-05-15T00:45:26.704Z,15.71
2023-05-15T00:46:32.469Z,15.71
2023-05-15T00:47:35.756Z,15.72
2023-05-15T00:48:39.103Z,15.71
2023-05-15T00:49:43.524Z,15.70
2023-05-15T00:50:47.887Z,15.64
2023-05-15T00:51:52.889Z,15.59
2023-05-15T00:52:56.266Z,15.57
2023-05-15T00:53:59.400Z,15.54
2023-05-15T00:55:02.123Z,15.51
2023-05-15T00:56:06.469Z,15.48
2023-05-15T00:57:09.227Z,15.50
2023-05-15T00:58:15.249Z,15.50
2023-05-15T00:59:19.269Z,15.48
2023-05-15T01:00:23.818Z,15.40
2023-05-15T01:01:29.556Z,15.34
2023-05-15T01:02:33.015Z,15.40
2023-05-15T01:03:36.289Z,15.40
2023-05-15T01:04:39.920Z,15.27
2023-05-15T01:05:44.884Z,15.28
2023-05-15T01:06:49.443Z,15.24
2023-05-15T01:08:07.995Z,15.11
2023-05-15T01:09:12.851Z,15.07
2023-05-15T01:10:19.045Z,15.08
2023-05-15T01:11:23.830Z,15.09
2023-05-15T01:12:30.198Z,15.05
2023-05-15T01:13:33.975Z,14.87
2023-05-15T01:14:37.792Z,14.68
2023-05-15T01:15:43.279Z,14.54
2023-05-15T01:16:47.942Z,14.46
2023-05-15T01:17:52.442Z,14.51
2023-05-15T01:18:56.500Z,14.61
2023-05-15T01:20:07.037Z,14.68
2023-05-15T01:21:29.110Z,14.72
2023-05-15T01:22:53.505Z,14.70
2023-05-15T01:24:19.048Z,14.62
2023-05-15T01:25:40.832Z,14.51
2023-05-15T01:27:01.675Z,14.48
2023-05-15T01:28:08.057Z,14.51
2023-05-15T01:29:22.252Z,14.52
2023-05-15T01:30:33.814Z,14.37
2023-05-15T01:31:38.631Z,14.34
2023-05-15T01:32:49.195Z,14.35
2023-05-15T01:33:54.450Z,14.39
2023-05-15T01:35:13.072Z,14.33
2023-05-15T01:36:27.370Z,14.40
2023-05-15T01:37:32.652Z,14.44
2023-05-15T01:38:49.896Z,14.38
2023-05-15T01:39:55.451Z,14.24
2023-05-15T01:41:16.394Z,14.29
2023-05-15T01:42:23.646Z,14.27
2023-05-15T01:43:28.908Z,14.32
2023-05-15T01:44:35.036Z,14.35
2023-05-15T01:45:39.991Z,14.37
2023-05-15T01:46:46.622Z,14.34
2023-05-15T01:47:50.744Z,14.27
2023-05-15T01:48:56.879Z,14.16
2023-05-15T01:50:02.710Z,14.23
2023-05-15T01:51:08.608Z,14.16
2023-05-15T01:52:19.520Z,14.12
2023-05-15T01:53:22.767Z,14.16
2023-05-15T01:54:28.509Z,14.19
2023-05-15T01:55:33.065Z,14.20
2023-05-15T01:56:38.523Z,14.22
2023-05-15T01:57:42.996Z,14.22
2023-05-15T01:58:48.996Z,14.22
2023-05-15T01:59:53.876Z,14.15
2023-05-15T02:01:00.655Z,14.24
2023-05-15T02:02:06.237Z,14.19
2023-05-15T02:03:11.339Z,14.09
2023-05-15T02:04:18.425Z,14.01
2023-05-15T02:05:25.123Z,13.95
2023-05-15T02:06:32.295Z,13.93
2023-05-15T02:07:36.608Z,13.89
2023-05-15T02:08:39.804Z,13.90
2023-05-15T02:09:44.950Z,13.87
2023-05-15T02:10:49.606Z,13.87
2023-05-15T02:11:54.992Z,13.88
2023-05-15T02:13:01.330Z,13.92
2023-05-15T02:14:09.083Z,13.94
2023-05-15T02:15:12.705Z,13.95
2023-05-15T02:16:17.102Z,13.96
2023-05-15T02:17:21.530Z,13.99
2023-05-15T02:18:26.268Z,13.99
2023-05-15T02:19:30.082Z,14.10
2023-05-15T02:20:33.212Z,14.14
2023-05-15T02:21:36.675Z,14.17
2023-05-15T02:22:40.165Z,14.22
2023-05-15T02:23:45.384Z,14.25
2023-05-15T02:24:48.590Z,14.29
2023-05-15T02:26:11.465Z,14.34
2023-05-15T02:27:29.293Z,14.38
2023-05-15T02:28:34.569Z,14.43
2023-05-15T02:29:38.694Z,14.36
2023-05-15T02:30:45.860Z,14.29
2023-05-15T02:31:50.073Z,14.32
2023-05-15T02:33:01.291Z,14.40
2023-05-15T02:34:15.805Z,14.44
2023-05-15T02:35:37.483Z,14.41
2023-05-15T02:36:41.510Z,14.29
2023-05-15T02:37:48.350Z,14.35
2023-05-15T02:38:54.797Z,14.39
2023-05-15T02:40:00.405Z,14.50
2023-05-15T02:41:05.731Z,14.50
2023-05-15T02:42:11.257Z,14.65
2023-05-15T02:43:17.008Z,14.69
2023-05-15T02:44:20.117Z,14.80
2023-05-15T02:45:28.041Z,14.91
2023-05-15T02:46:33.256Z,15.01
2023-05-15T02:47:37.035Z,15.08
2023-05-15T02:48:40.724Z,14.98
2023-05-15T02:49:44.780Z,14.98
2023-05-15T02:50:50.781Z,14.98
2023-05-15T02:51:54.278Z,15.13
2023-05-15T02:53:08.352Z,15.28
2023-05-15T02:54:12.264Z,15.45
2023-05-15T02:55:16.492Z,15.55
2023-05-15T02:56:21.269Z,15.34
2023-05-15T02:57:25.284Z,15.20
2023-05-15T02:58:33.086Z,15.21
2023-05-15T02:59:36.890Z,15.37
2023-05-15T03:00:40.387Z,15.46
2023-05-15T03:01:43.393Z,15.53
2023-05-15T03:02:47.248Z,15.54
2023-05-15T03:03:50.807Z,15.61
2023-05-15T03:04:54.731Z,15.69
2023-05-15T03:06:02.235Z,15.78
2023-05-15T03:07:05.707Z,15.85
2023-05-15T03:08:09.212Z,15.92
2023-05-15T03:09:14.959Z,16.03
2023-05-15T03:10:18.057Z,16.05
2023-05-15T03:11:22.525Z,16.09
2023-05-15T03:12:26.568Z,16.09
2023-05-15T03:13:30.286Z,16.11
2023-05-15T03:14:33.737Z,16.16
2023-05-15T03:15:37.495Z,16.13
2023-05-15T03:16:42.046Z,16.10
2023-05-15T03:17:46.507Z,16.08
2023-05-15T03:18:49.188Z,16.07
2023-05-15T03:19:52.900Z,16.03
2023-05-15T03:20:56.391Z,15.90
2023-05-15T03:22:03.597Z,15.86
2023-05-15T03:23:07.267Z,15.91
2023-05-15T03:24:09.725Z,15.93
2023-05-15T03:25:13.333Z,15.99
2023-05-15T03:26:15.895Z,16.02
2023-05-15T03:27:19.104Z,16.06
2023-05-15T03:28:22.745Z,16.06
2023-05-15T03:29:26.317Z,16.14
2023-05-15T03:30:29.921Z,16.15
2023-05-15T03:31:33.546Z,16.16
2023-05-15T03:32:37.153Z,16.22
2023-05-15T03:33:40.535Z,16.29
2023-05-15T03:34:44.041Z,16.31
2023-05-15T03:35:47.651Z,16.32
2023-05-15T03:36:51.565Z,16.34
2023-05-15T03:37:54.969Z,16.43
2023-05-15T03:39:01.026Z,16.46
2023-05-15T03:40:05.745Z,16.53
2023-05-15T03:41:10.129Z,16.66
2023-05-15T03:42:13.486Z,16.71
2023-05-15T03:43:17.181Z,16.90
2023-05-15T03:44:19.876Z,17.09
2023-05-15T03:45:23.168Z,17.11
2023-05-15T03:46:27.743Z,17.20
2023-05-15T03:47:31.133Z,17.19
2023-05-15T03:48:34.619Z,17.29
2023-05-15T03:49:39.841Z,17.37
2023-05-15T03:50:47.818Z,17.47
2023-05-15T03:51:52.760Z,17.57
2023-05-15T03:52:56.490Z,17.59
2023-05-15T03:54:00.292Z,17.64
2023-05-15T03:55:03.701Z,17.70
2023-05-15T03:56:07.188Z,17.75
2023-05-15T03:57:11.019Z,17.79
2023-05-15T03:58:14.300Z,17.86
2023-05-15T03:59:16.983Z,17.89
2023-05-15T04:00:19.318Z,17.94
2023-05-15T04:01:24.312Z,18.02
2023-05-15T04:02:28.000Z,18.11
2023-05-15T04:03:31.597Z,18.23
2023-05-15T04:04:35.235Z,18.36
2023-05-15T04:05:38.665Z,18.48
2023-05-15T04:06:41.930Z,18.56
2023-05-15T04:07:45.227Z,18.62
2023-05-15T04:08:48.849Z,18.85
2023-05-15T04:09:54.452Z,19.43
2023-05-15T04:10:59.071Z,20.31
2023-05-15T04:12:03.226Z,20.86
2023-05-15T04:13:06.561Z,21.10
2023-05-15T04:14:10.742Z,21.23
2023-05-15T04:15:15.347Z,21.28
2023-05-15T04:16:18.311Z,21.14
2023-05-15T04:17:22.436Z,20.88
2023-05-15T04:18:26.694Z,20.99
2023-05-15T04:19:30.041Z,21.34
2023-05-15T04:20:34.496Z,21.60
2023-05-15T04:21:37.644Z,22.04
2023-05-15T04:22:42.228Z,22.93
2023-05-15T04:23:45.143Z,24.20
2023-05-15T04:24:50.569Z,24.82
2023-05-15T04:25:54.310Z,24.97
2023-05-15T04:26:56.733Z,25.70
2023-05-15T04:27:59.439Z,26.82
2023-05-15T04:29:04.862Z,27.73
2023-05-15T04:30:12.668Z,28.44
2023-05-15T04:31:16.228Z,28.65
2023-05-15T04:32:21.792Z,29.47
2023-05-15T04:33:25.837Z,30.13
2023-05-15T04:34:30.295Z,30.57
2023-05-15T04:35:33.905Z,30.92
2023-05-15T04:36:39.537Z,31.11
2023-05-15T04:37:46.040Z,31.54
2023-05-15T04:38:49.641Z,31.41
2023-05-15T04:39:53.250Z,31.55
2023-05-15T04:40:57.413Z,31.84
2023-05-15T04:42:00.258Z,32.24
2023-05-15T04:43:05.600Z,32.45
2023-05-15T04:44:09.455Z,32.31
2023-05-15T04:45:13.899Z,32.53
2023-05-15T04:46:18.481Z,32.75
2023-05-15T04:47:22.093Z,32.71
2023-05-15T04:48:26.087Z,32.11
2023-05-15T04:49:29.494Z,32.31
2023-05-15T04:50:33.625Z,32.68
2023-05-15T04:51:35.981Z,32.60
2023-05-15T04:52:39.709Z,32.77
2023-05-15T04:53:41.948Z,32.69
2023-05-15T04:54:45.295Z,32.56
2023-05-15T04:55:51.584Z,32.81
2023-05-15T04:56:56.734Z,32.97
2023-05-15T04:57:59.926Z,33.07
2023-05-15T04:59:03.314Z,33.66
2023-05-15T05:00:12.847Z,33.93
2023-05-15T05:01:16.541Z,34.04
2023-05-15T05:02:23.324Z,33.52
2023-05-15T05:03:27.588Z,33.21
2023-05-15T05:04:32.248Z,34.11
2023-05-15T05:05:35.753Z,34.47
2023-05-15T05:06:39.364Z,34.36
2023-05-15T05:07:44.349Z,34.49
2023-05-15T05:08:47.618Z,34.96
2023-05-15T05:09:51.157Z,35.48
2023-05-15T05:10:58.023Z,35.70
2023-05-15T05:12:01.587Z,35.94
2023-05-15T05:13:06.351Z,35.90
2023-05-15T05:14:10.794Z,36.06
2023-05-15T05:15:14.405Z,36.05
2023-05-15T05:16:18.924Z,35.56
2023-05-15T05:17:22.409Z,35.94
2023-05-15T05:18:25.854Z,36.52
2023-05-15T05:19:29.354Z,36.78
2023-05-15T05:20:32.459Z,37.21
2023-05-15T05:21:35.849Z,37.22
2023-05-15T05:22:41.233Z,36.89
2023-05-15T05:23:49.012Z,36.82
2023-05-15T05:24:54.190Z,36.95
2023-05-15T05:25:57.717Z,37.08
2023-05-15T05:26:59.949Z,36.90
2023-05-15T05:28:03.245Z,37.14
2023-05-15T05:29:07.502Z,37.12
2023-05-15T05:30:10.843Z,37.29
2023-05-15T05:31:15.664Z,37.44
2023-05-15T05:32:21.639Z,36.99
2023-05-15T05:33:25.477Z,36.74
2023-05-15T05:34:28.998Z,36.70
2023-05-15T05:35:32.799Z,35.82
2023-05-15T05:36:36.503Z,35.49
2023-05-15T05:37:41.278Z,35.59
2023-05-15T05:38:45.290Z,36.26
2023-05-15T05:39:49.847Z,37.07
2023-05-15T05:40:53.664Z,36.51
2023-05-15T05:41:56.948Z,36.11
2023-05-15T05:43:01.654Z,35.68
2023-05-15T05:44:05.327Z,36.59
2023-05-15T05:45:09.280Z,37.28
2023-05-15T05:46:11.720Z,37.32
2023-05-15T05:47:15.480Z,37.80
2023-05-15T05:48:17.882Z,37.98
2023-05-15T05:49:20.340Z,37.06
2023-05-15T05:50:24.170Z,37.66
2023-05-15T05:51:26.826Z,37.87
2023-05-15T05:52:31.912Z,38.07
2023-05-15T05:53:34.254Z,38.30
2023-05-15T05:54:40.794Z,38.09
2023-05-15T05:55:43.880Z,37.71
2023-05-15T05:56:47.411Z,36.99
2023-05-15T05:57:52.140Z,37.09
2023-05-15T05:58:57.316Z,37.53
2023-05-15T06:00:00.208Z,37.51
2023-05-15T06:01:03.799Z,36.37
2023-05-15T06:02:07.234Z,35.39
2023-05-15T06:03:11.211Z,35.33
2023-05-15T06:04:18.124Z,35.68
2023-05-15T06:05:20.756Z,34.87
2023-05-15T06:06:25.108Z,33.63
2023-05-15T06:07:29.954Z,33.37
2023-05-15T06:08:34.715Z,34.39
2023-05-15T06:09:38.337Z,35.60
2023-05-15T06:10:44.213Z,36.20
2023-05-15T06:11:48.261Z,36.48
2023-05-15T06:12:50.531Z,35.60
2023-05-15T06:13:54.029Z,34.95
2023-05-15T06:14:57.253Z,35.77
2023-05-15T06:16:02.163Z,36.42
2023-05-15T06:17:04.795Z,37.22
2023-05-15T06:18:08.302Z,37.36
2023-05-15T06:19:11.954Z,37.42
2023-05-15T06:20:14.854Z,37.77
2023-05-15T06:21:18.442Z,37.42
2023-05-15T06:22:22.676Z,37.68
2023-05-15T06:23:25.365Z,38.41
2023-05-15T06:24:31.835Z,38.82
2023-05-15T06:25:36.977Z,38.78
2023-05-15T06:26:40.138Z,39.03
2023-05-15T06:27:46.055Z,39.09
2023-05-15T06:28:49.342Z,39.54
2023-05-15T06:29:52.217Z,39.76
2023-05-15T06:30:55.564Z,39.64
2023-05-15T06:31:59.421Z,39.99
2023-05-15T06:33:04.785Z,40.19
2023-05-15T06:34:08.234Z,39.46
2023-05-15T06:35:10.576Z,39.34
2023-05-15T06:36:13.674Z,39.26
2023-05-15T06:37:16.992Z,38.16
2023-05-15T06:38:20.477Z,37.58
2023-05-15T06:39:24.088Z,37.34
2023-05-15T06:40:28.102Z,37.25
2023-05-15T06:41:31.879Z,37.40
2023-05-15T06:42:36.691Z,37.79
2023-05-15T06:43:40.084Z,38.00
2023-05-15T06:44:43.379Z,38.37
2023-05-15T06:45:46.683Z,39.26
2023-05-15T06:46:49.246Z,39.69
2023-05-15T06:47:54.892Z,39.69
2023-05-15T06:48:58.454Z,40.30
2023-05-15T06:50:01.828Z,40.00
2023-05-15T06:51:06.990Z,38.77
2023-05-15T06:52:11.254Z,38.87
2023-05-15T06:53:14.876Z,39.27
2023-05-15T06:54:18.897Z,38.85
2023-05-15T06:55:22.092Z,38.86
2023-05-15T06:56:25.489Z,39.24
2023-05-15T06:57:27.754Z,39.53
2023-05-15T06:58:31.167Z,39.44
2023-05-15T06:59:36.258Z,39.60
2023-05-15T07:00:39.555Z,39.56
2023-05-15T07:01:43.042Z,39.28
2023-05-15T07:02:46.656Z,39.22
2023-05-15T07:03:48.933Z,39.11
2023-05-15T07:04:51.921Z,39.55
2023-05-15T07:05:54.531Z,39.87
2023-05-15T07:06:57.908Z,39.88
2023-05-15T07:08:02.365Z,39.42
2023-05-15T07:09:04.952Z,38.73
2023-05-15T07:10:10.891Z,38.62
2023-05-15T07:11:14.354Z,38.19
2023-05-15T07:12:17.649Z,39.22
2023-05-15T07:13:23.136Z,40.12
2023-05-15T07:14:29.698Z,40.41
2023-05-15T07:15:33.496Z,40.00
2023-05-15T07:16:35.954Z,39.33
2023-05-15T07:17:39.417Z,39.59
2023-05-15T07:18:43.378Z,40.01
2023-05-15T07:19:47.820Z,40.31
2023-05-15T07:20:51.224Z,40.07
2023-05-15T07:21:54.614Z,39.84
2023-05-15T07:22:57.794Z,39.17
2023-05-15T07:24:00.175Z,38.48
2023-05-15T07:25:03.987Z,38.58
2023-05-15T07:26:08.825Z,38.91
2023-05-15T07:27:14.025Z,39.12
2023-05-15T07:28:19.551Z,40.08
2023-05-15T07:29:23.123Z,40.43
2023-05-15T07:30:26.664Z,41.01
2023-05-15T07:31:31.003Z,40.96
2023-05-15T07:32:33.699Z,41.10
2023-05-15T07:33:39.962Z,40.82
2023-05-15T07:34:43.462Z,40.88
2023-05-15T07:35:46.884Z,40.61
2023-05-15T07:36:50.175Z,40.45
2023-05-15T07:37:54.922Z,40.41
2023-05-15T07:39:00.309Z,40.14
2023-05-15T07:40:03.910Z,38.20
2023-05-15T07:41:07.528Z,37.90
2023-05-15T07:42:10.329Z,38.88
2023-05-15T07:43:12.585Z,38.54
2023-05-15T07:44:16.886Z,38.64
2023-05-15T07:45:20.564Z,38.05
2023-05-15T07:46:23.040Z,38.25
2023-05-15T07:47:26.589Z,38.31
2023-05-15T07:48:30.912Z,38.66
2023-05-15T07:49:34.314Z,37.96
2023-05-15T07:50:37.708Z,37.12
2023-05-15T07:51:41.365Z,37.56
2023-05-15T07:52:45.244Z,37.49
2023-05-15T07:53:48.542Z,37.12
2023-05-15T07:54:55.607Z,37.24
2023-05-15T07:55:58.760Z,37.51
2023-05-15T07:57:01.250Z,37.12
2023-05-15T07:58:05.771Z,36.96
2023-05-15T07:59:10.258Z,36.98
2023-05-15T08:00:14.584Z,36.57
2023-05-15T08:01:18.228Z,36.18
2023-05-15T08:02:20.984Z,36.04
2023-05-15T08:03:24.414Z,36.47
2023-05-15T08:04:26.896Z,36.54
2023-05-15T08:05:30.323Z,35.70
2023-05-15T08:06:33.950Z,35.03
2023-05-15T08:07:37.558Z,35.13
2023-05-15T08:08:41.036Z,34.99
2023-05-15T08:09:45.608Z,34.84
2023-05-15T08:10:48.931Z,35.25
2023-05-15T08:11:51.215Z,35.11
2023-05-15T08:12:54.547Z,35.13
2023-05-15T08:13:58.107Z,34.92
2023-05-15T08:15:01.967Z,34.65
2023-05-15T08:16:05.606Z,34.25
2023-05-15T08:17:08.980Z,34.01
2023-05-15T08:18:11.345Z,33.95
2023-05-15T08:19:17.154Z,34.26
2023-05-15T08:20:20.344Z,34.38
2023-05-15T08:21:22.590Z,34.66
2023-05-15T08:22:26.416Z,34.79
2023-05-15T08:23:29.753Z,34.55
2023-05-15T08:24:33.422Z,33.92
2023-05-15T08:25:36.156Z,33.97
2023-05-15T08:26:42.264Z,34.22
2023-05-15T08:27:45.709Z,34.28
2023-05-15T08:28:48.070Z,33.96
2023-05-15T08:29:51.458Z,34.08
2023-05-15T08:30:57.151Z,34.23
2023-05-15T08:32:03.210Z,34.54
2023-05-15T08:33:06.860Z,34.62
2023-05-15T08:34:13.447Z,34.52
2023-05-15T08:35:17.976Z,34.53
2023-05-15T08:36:21.385Z,34.30
2023-05-15T08:37:24.758Z,34.14
2023-05-15T08:38:28.066Z,34.36
2023-05-15T08:39:30.428Z,33.87
2023-05-15T08:40:39.009Z,33.92
2023-05-15T08:41:50.493Z,33.54
2023-05-15T08:42:56.271Z,33.26
2023-05-15T08:44:02.862Z,33.41
2023-05-15T08:45:09.235Z,33.69
2023-05-15T08:46:13.098Z,33.79
2023-05-15T08:47:17.153Z,33.98
2023-05-15T08:48:26.053Z,34.16
2023-05-15T08:49:32.472Z,34.48
2023-05-15T08:50:38.164Z,34.42
2023-05-15T08:51:43.130Z,34.66
2023-05-15T08:52:48.827Z,35.06
2023-05-15T08:53:53.181Z,34.96
2023-05-15T08:54:56.790Z,35.03
2023-05-15T08:56:02.170Z,34.90
2023-05-15T08:57:06.512Z,34.97
2023-05-15T08:58:08.871Z,34.88
2023-05-15T08:59:17.924Z,35.16
2023-05-15T09:00:22.991Z,34.86
2023-05-15T09:01:27.877Z,35.00
2023-05-15T09:02:32.206Z,34.99
2023-05-15T09:03:35.688Z,34.76
2023-05-15T09:04:38.975Z,34.43
2023-05-15T09:05:41.330Z,34.33
2023-05-15T09:06:46.513Z,34.07
2023-05-15T09:07:51.690Z,34.09
2023-05-15T09:08:56.045Z,34.41
2023-05-15T09:10:00.059Z,34.21
2023-05-15T09:11:03.985Z,34.32
2023-05-15T09:12:08.526Z,33.56
2023-05-15T09:13:13.084Z,33.20
2023-05-15T09:14:17.322Z,33.46
2023-05-15T09:15:23.165Z,33.60
2023-05-15T09:16:27.598Z,33.74
2023-05-15T09:17:31.452Z,33.77
2023-05-15T09:18:35.014Z,33.60
2023-05-15T09:19:43.045Z,33.46
2023-05-15T09:20:46.332Z,33.79
2023-05-15T09:21:50.108Z,34.07
2023-05-15T09:22:53.824Z,33.31
2023-05-15T09:24:11.660Z,33.21
2023-05-15T09:25:17.538Z,33.79
2023-05-15T09:26:21.869Z,33.77
2023-05-15T09:27:25.801Z,33.49
2023-05-15T09:28:29.774Z,33.60
2023-05-15T09:29:34.056Z,33.98
2023-05-15T09:30:41.867Z,34.15
2023-05-15T09:31:47.158Z,34.39
2023-05-15T09:32:52.239Z,34.38
2023-05-15T09:33:57.998Z,33.89
2023-05-15T09:35:01.287Z,33.94
2023-05-15T09:36:05.737Z,33.79
2023-05-15T09:37:10.820Z,34.00
2023-05-15T09:38:17.346Z,34.27
2023-05-15T09:39:25.679Z,34.19
2023-05-15T09:40:29.457Z,34.05
2023-05-15T09:41:32.876Z,34.32
2023-05-15T09:42:38.826Z,34.56
2023-05-15T09:43:42.066Z,34.23
2023-05-15T09:44:47.105Z,33.88
2023-05-15T09:45:51.081Z,33.08
2023-05-15T09:46:53.603Z,33.24
2023-05-15T09:47:58.063Z,33.28
2023-05-15T09:49:08.592Z,33.14
2023-05-15T09:50:11.374Z,33.21
2023-05-15T09:51:22.199Z,33.26
2023-05-15T09:52:28.188Z,33.19
2023-05-15T09:53:33.896Z,32.81
2023-05-15T09:54:38.129Z,33.12
2023-05-15T09:55:42.155Z,33.16
2023-05-15T09:56:45.776Z,32.84
2023-05-15T09:57:50.722Z,32.82
2023-05-15T09:58:57.654Z,32.85
2023-05-15T10:00:04.024Z,32.92
2023-05-15T10:01:11.664Z,33.14
2023-05-15T10:02:16.856Z,33.47
2023-05-15T10:03:20.274Z,33.43
2023-05-15T10:04:24.414Z,32.67
2023-05-15T10:05:42.043Z,32.72
2023-05-15T10:06:40.619Z,32.89
2023-05-15T10:07:44.859Z,32.47
2023-05-15T10:08:52.951Z,31.92
2023-05-15T10:09:56.528Z,31.99
2023-05-15T10:11:02.574Z,31.41
2023-05-15T10:12:11.316Z,31.24
2023-05-15T10:13:15.224Z,31.39
2023-05-15T10:14:19.340Z,31.73
2023-05-15T10:15:23.421Z,31.85
2023-05-15T10:16:28.280Z,31.81
2023-05-15T10:17:33.179Z,31.36
2023-05-15T10:18:38.873Z,31.20
2023-05-15T10:19:56.657Z,31.18
2023-05-15T10:20:51.477Z,31.79
2023-05-15T10:21:58.596Z,31.28
2023-05-15T10:23:05.868Z,30.74
2023-05-15T10:24:09.677Z,30.55
2023-05-15T10:25:23.728Z,30.27
2023-05-15T10:26:39.195Z,30.24
2023-05-15T10:27:43.399Z,30.32
2023-05-15T10:28:47.004Z,30.54
2023-05-15T10:29:52.910Z,30.43
2023-05-15T10:30:59.303Z,30.19
2023-05-15T10:32:02.727Z,30.07
2023-05-15T10:33:08.625Z,30.08
2023-05-15T10:34:11.626Z,29.79
2023-05-15T10:35:16.344Z,29.56
2023-05-15T10:36:20.414Z,29.49
2023-05-15T10:38:32.731Z,29.55
2023-05-15T10:39:42.059Z,29.61
2023-05-15T10:40:45.296Z,29.49
2023-05-15T10:41:50.481Z,29.88
2023-05-15T10:42:55.561Z,30.06
2023-05-15T10:44:02.597Z,30.06
2023-05-15T10:45:07.741Z,30.30
2023-05-15T10:46:12.320Z,30.66
2023-05-15T10:47:16.102Z,31.16
2023-05-15T10:48:21.052Z,31.33
2023-05-15T10:49:24.614Z,31.35
2023-05-15T10:50:28.642Z,31.18
2023-05-15T10:51:33.720Z,31.36
2023-05-15T10:52:38.672Z,31.36
2023-05-15T10:53:42.290Z,31.65
2023-05-15T10:54:44.853Z,31.23
2023-05-15T10:55:49.935Z,31.46
2023-05-15T10:56:55.092Z,31.11
2023-05-15T10:57:58.301Z,31.27
2023-05-15T10:59:07.968Z,31.69
2023-05-15T11:00:25.507Z,31.31
2023-05-15T11:01:30.258Z,31.80
2023-05-15T11:02:36.771Z,32.06
2023-05-15T11:03:48.024Z,32.01
2023-05-15T11:04:46.122Z,31.90
2023-05-15T11:06:10.443Z,31.97
2023-05-15T11:07:14.883Z,31.79
2023-05-15T11:08:21.006Z,31.92
2023-05-15T11:09:33.035Z,31.65
2023-05-15T11:10:37.011Z,31.42
2023-05-15T11:11:46.946Z,31.13
2023-05-15T11:12:57.599Z,31.29
2023-05-15T11:14:09.140Z,30.98
2023-05-15T11:15:15.458Z,31.26
2023-05-15T11:16:36.895Z,31.25
2023-05-15T11:17:42.359Z,31.28
2023-05-15T11:18:44.809Z,31.22
2023-05-15T11:19:50.058Z,31.15
2023-05-15T11:20:56.803Z,31.13
2023-05-15T11:22:12.348Z,31.44
2023-05-15T11:23:15.725Z,31.46
2023-05-15T11:24:18.437Z,31.64
2023-05-15T11:25:22.943Z,31.16
2023-05-15T11:26:34.601Z,30.69
2023-05-15T11:27:39.751Z,30.98
2023-05-15T11:28:47.757Z,30.86
2023-05-15T11:30:05.687Z,30.86
2023-05-15T11:31:08.941Z,30.98
2023-05-15T11:32:30.360Z,30.86
2023-05-15T11:33:34.052Z,30.80
2023-05-15T11:34:39.111Z,30.49
2023-05-15T11:35:49.083Z,30.60
2023-05-15T11:36:54.183Z,30.60
2023-05-15T11:37:57.375Z,30.36
2023-05-15T11:39:00.984Z,30.35
2023-05-15T11:40:06.987Z,30.59
2023-05-15T11:41:20.505Z,30.17
2023-05-15T11:42:24.913Z,30.21
2023-05-15T11:44:34.272Z,30.48
2023-05-15T11:45:40.002Z,30.56
2023-05-15T11:46:45.751Z,30.46
2023-05-15T11:47:50.273Z,30.39
2023-05-15T11:48:54.352Z,30.54
2023-05-15T11:49:57.968Z,30.77
2023-05-15T11:51:05.129Z,30.52
2023-05-15T11:52:08.836Z,30.41
2023-05-15T11:53:13.423Z,30.35
2023-05-15T11:54:17.115Z,30.14
2023-05-15T11:55:21.809Z,30.31
2023-05-15T11:56:30.925Z,30.34
2023-05-15T11:57:34.403Z,30.22
2023-05-15T11:58:38.758Z,30.52
2023-05-15T11:59:43.237Z,30.51
2023-05-15T12:00:48.679Z,30.23
2023-05-15T12:01:51.348Z,30.48
2023-05-15T12:02:55.301Z,30.58
2023-05-15T12:03:58.973Z,30.51
2023-05-15T12:05:02.580Z,30.21
2023-05-15T12:06:07.874Z,29.85
2023-05-15T12:07:12.786Z,29.94
2023-05-15T12:08:17.716Z,30.10
2023-05-15T12:09:24.229Z,30.18
2023-05-15T12:10:27.867Z,30.31
2023-05-15T12:11:32.101Z,30.23
2023-05-15T12:12:36.640Z,30.21
2023-05-15T12:13:39.524Z,30.12
2023-05-15T12:14:46.404Z,30.20
2023-05-15T12:15:52.178Z,30.41
2023-05-15T12:16:59.765Z,30.32
2023-05-15T12:18:03.794Z,29.90
2023-05-15T12:19:06.796Z,29.73
2023-05-15T12:20:12.641Z,29.84
2023-05-15T12:21:17.529Z,30.06
2023-05-15T12:22:21.502Z,29.78
2023-05-15T12:23:28.943Z,30.00
2023-05-15T12:24:32.384Z,30.12
2023-05-15T12:25:36.672Z,30.21
2023-05-15T12:26:40.356Z,30.18
2023-05-15T12:27:44.302Z,29.80
2023-05-15T12:28:46.974Z,29.74
2023-05-15T12:29:51.579Z,30.10
2023-05-15T12:30:56.978Z,30.21
2023-05-15T12:32:00.777Z,30.05
2023-05-15T12:33:05.771Z,29.68
2023-05-15T12:34:10.076Z,29.74
2023-05-15T12:35:13.901Z,29.86
2023-05-15T12:36:20.397Z,29.99
2023-05-15T12:37:24.705Z,30.00
2023-05-15T12:38:28.327Z,29.98
2023-05-15T12:39:31.967Z,29.78
2023-05-15T12:40:37.194Z,29.92
2023-05-15T12:41:40.728Z,29.72
2023-05-15T12:42:44.438Z,29.60
2023-05-15T12:43:50.783Z,29.15
2023-05-15T12:44:57.622Z,29.32
2023-05-15T12:46:01.062Z,29.23
2023-05-15T12:47:04.109Z,29.33
2023-05-15T12:48:08.687Z,29.36
2023-05-15T12:49:12.544Z,29.27
2023-05-15T12:50:16.921Z,29.09
2023-05-15T12:51:23.454Z,29.02
2023-05-15T12:52:30.198Z,28.72
2023-05-15T12:53:36.051Z,28.54
2023-05-15T12:54:42.848Z,28.41
2023-05-15T12:55:46.747Z,28.52
2023-05-15T12:56:50.273Z,28.67
2023-05-15T12:57:55.548Z,29.03
2023-05-15T12:59:01.353Z,29.06
2023-05-15T13:00:06.082Z,29.17
2023-05-15T13:01:08.478Z,29.29
2023-05-15T13:02:14.114Z,29.26
2023-05-15T13:03:20.698Z,28.79
2023-05-15T13:04:24.042Z,28.74
2023-05-15T13:05:28.236Z,28.73
2023-05-15T13:06:42.279Z,28.92
2023-05-15T13:07:38.895Z,29.01
2023-05-15T13:08:42.579Z,29.06
2023-05-15T13:09:48.207Z,29.00
2023-05-15T13:11:02.413Z,28.95
2023-05-15T13:12:06.672Z,28.89
2023-05-15T13:13:10.008Z,28.90
2023-05-15T13:14:17.337Z,28.83
2023-05-15T13:15:28.498Z,29.21
2023-05-15T13:16:32.554Z,29.24
2023-05-15T13:17:36.267Z,29.10
2023-05-15T13:18:40.687Z,29.27
2023-05-15T13:19:43.917Z,29.01
2023-05-15T13:20:48.413Z,29.20
2023-05-15T13:21:51.593Z,29.10
2023-05-15T13:22:54.874Z,29.10
2023-05-15T13:23:59.899Z,28.98
2023-05-15T13:25:08.445Z,28.82
2023-05-15T13:26:12.317Z,28.79
2023-05-15T13:27:17.485Z,29.02
2023-05-15T13:28:21.939Z,29.17
2023-05-15T13:29:29.303Z,29.20
2023-05-15T13:30:36.158Z,28.93
2023-05-15T13:31:39.815Z,28.77
2023-05-15T13:32:43.296Z,28.72
2023-05-15T13:33:47.025Z,28.59
2023-05-15T13:34:50.270Z,28.61
2023-05-15T13:35:54.397Z,28.66
2023-05-15T13:36:57.595Z,28.61
2023-05-15T13:38:01.109Z,28.69
2023-05-15T13:39:04.927Z,28.90
2023-05-15T13:40:12.511Z,28.92
2023-05-15T13:41:16.325Z,28.85
2023-05-15T13:42:20.044Z,28.91
2023-05-15T13:43:24.558Z,28.99
2023-05-15T13:44:31.172Z,29.21
2023-05-15T13:45:34.837Z,29.23
2023-05-15T13:46:37.685Z,29.40
2023-05-15T13:47:41.097Z,29.34
2023-05-15T13:48:43.494Z,29.24
2023-05-15T13:49:46.920Z,29.32
2023-05-15T13:50:49.165Z,29.27
2023-05-15T13:51:51.489Z,28.93
2023-05-15T13:52:57.533Z,28.87
2023-05-15T13:54:02.188Z,29.09
2023-05-15T13:55:07.533Z,29.24
2023-05-15T13:56:11.175Z,29.35
2023-05-15T13:57:15.787Z,28.77
2023-05-15T13:58:18.467Z,28.52
2023-05-15T13:59:21.980Z,28.55